Terminal Aerodrome Forecast
Issued by NWS Cleveland, OH

Home | Current Version | Previous Version | Text Only | Print | Product List | Glossary Off
Versions: 1 2 3 4 5 6 7 8 9 10 11 12 13 14 15 16 17 18

111
FTUS41 KCLE 101125
TAFTOL
TAF
KTOL 101125Z 1012/1112 24014KT P6SM BKN050
      TEMPO 1012/1015 BKN025
     FM102300 26008KT P6SM BKN040
     FM110300 26010KT P6SM BKN030
     FM110700 28004KT P6SM SCT035 BKN200=

USA.gov is the U.S. government's official web portal to all federal, state and local government web resources and services.